sensor_id;sensor_type;location;lat;lon;timestamp;P1;durP1;ratioP1;P2;durP2;ratioP2
31224;SDS011;17847;31.524;74.366;2024-01-30T00:02:24;242.95;;;147.43;;
31224;SDS011;17847;31.524;74.366;2024-01-30T00:04:54;248.27;;;148.75;;
31224;SDS011;17847;31.524;74.366;2024-01-30T00:07:23;227.45;;;144.10;;
31224;SDS011;17847;31.524;74.366;2024-01-30T00:09:53;237.65;;;143.77;;
31224;SDS011;17847;31.524;74.366;2024-01-30T00:12:23;240.45;;;144.18;;
31224;SDS011;17847;31.524;74.366;2024-01-30T00:14:52;232.35;;;142.65;;
31224;SDS011;17847;31.524;74.366;2024-01-30T00:17:22;231.50;;;142.10;;
31224;SDS011;17847;31.524;74.366;2024-01-30T00:19:54;241.52;;;146.30;;
31224;SDS011;17847;31.524;74.366;2024-01-30T00:22:23;229.35;;;140.68;;
31224;SDS011;17847;31.524;74.366;2024-01-30T00:24:52;238.40;;;144.85;;
31224;SDS011;17847;31.524;74.366;2024-01-30T00:27:21;241.00;;;142.23;;
31224;SDS011;17847;31.524;74.366;2024-01-30T00:29:51;240.23;;;141.55;;
31224;SDS011;17847;31.524;74.366;2024-01-30T00:32:20;247.00;;;142.93;;
31224;SDS011;17847;31.524;74.366;2024-01-30T00:34:49;234.43;;;141.13;;
31224;SDS011;17847;31.524;74.366;2024-01-30T00:37:19;241.55;;;146.18;;
31224;SDS011;17847;31.524;74.366;2024-01-30T00:39:48;252.77;;;142.45;;
31224;SDS011;17847;31.524;74.366;2024-01-30T00:42:17;253.30;;;147.18;;
31224;SDS011;17847;31.524;74.366;2024-01-30T00:44:47;243.98;;;145.50;;
31224;SDS011;17847;31.524;74.366;2024-01-30T00:47:16;243.40;;;142.13;;
31224;SDS011;17847;31.524;74.366;2024-01-30T00:49:46;239.10;;;141.88;;
31224;SDS011;17847;31.524;74.366;2024-01-30T00:52:15;241.63;;;140.90;;
31224;SDS011;17847;31.524;74.366;2024-01-30T00:54:44;236.93;;;142.02;;
31224;SDS011;17847;31.524;74.366;2024-01-30T00:57:14;229.38;;;138.20;;
31224;SDS011;17847;31.524;74.366;2024-01-30T00:59:43;235.27;;;139.52;;
31224;SDS011;17847;31.524;74.366;2024-01-30T01:02:12;238.15;;;139.27;;
31224;SDS011;17847;31.524;74.366;2024-01-30T01:04:43;230.52;;;136.57;;
31224;SDS011;17847;31.524;74.366;2024-01-30T01:07:12;228.63;;;133.15;;
31224;SDS011;17847;31.524;74.366;2024-01-30T01:09:42;217.18;;;134.13;;
31224;SDS011;17847;31.524;74.366;2024-01-30T01:12:11;222.05;;;133.27;;
31224;SDS011;17847;31.524;74.366;2024-01-30T01:14:40;226.25;;;133.90;;
31224;SDS011;17847;31.524;74.366;2024-01-30T01:17:10;222.10;;;133.00;;
31224;SDS011;17847;31.524;74.366;2024-01-30T01:19:40;237.25;;;139.07;;
31224;SDS011;17847;31.524;74.366;2024-01-30T01:22:09;224.05;;;136.95;;
31224;SDS011;17847;31.524;74.366;2024-01-30T01:24:39;223.15;;;135.90;;
31224;SDS011;17847;31.524;74.366;2024-01-30T01:27:08;229.85;;;134.88;;
31224;SDS011;17847;31.524;74.366;2024-01-30T01:29:37;221.40;;;134.75;;
31224;SDS011;17847;31.524;74.366;2024-01-30T01:32:06;225.35;;;133.77;;
31224;SDS011;17847;31.524;74.366;2024-01-30T01:34:36;228.20;;;134.80;;
31224;SDS011;17847;31.524;74.366;2024-01-30T01:37:05;225.75;;;133.07;;
31224;SDS011;17847;31.524;74.366;2024-01-30T01:39:35;221.98;;;132.30;;
31224;SDS011;17847;31.524;74.366;2024-01-30T01:42:04;213.30;;;129.93;;
31224;SDS011;17847;31.524;74.366;2024-01-30T01:44:34;222.82;;;130.50;;
31224;SDS011;17847;31.524;74.366;2024-01-30T01:47:03;226.75;;;134.20;;
31224;SDS011;17847;31.524;74.366;2024-01-30T01:49:32;213.73;;;131.15;;
31224;SDS011;17847;31.524;74.366;2024-01-30T01:52:01;227.00;;;132.75;;
31224;SDS011;17847;31.524;74.366;2024-01-30T01:54:31;232.43;;;131.38;;
31224;SDS011;17847;31.524;74.366;2024-01-30T01:57:00;222.98;;;133.40;;
31224;SDS011;17847;31.524;74.366;2024-01-30T01:59:30;220.25;;;133.25;;
31224;SDS011;17847;31.524;74.366;2024-01-30T02:01:59;221.57;;;133.32;;
31224;SDS011;17847;31.524;74.366;2024-01-30T02:04:31;221.88;;;132.75;;
31224;SDS011;17847;31.524;74.366;2024-01-30T02:07:00;224.05;;;136.63;;
31224;SDS011;17847;31.524;74.366;2024-01-30T02:09:29;224.60;;;132.32;;
31224;SDS011;17847;31.524;74.366;2024-01-30T02:11:59;225.25;;;133.05;;
31224;SDS011;17847;31.524;74.366;2024-01-30T02:14:29;225.48;;;135.63;;
31224;SDS011;17847;31.524;74.366;2024-01-30T02:16:58;231.57;;;133.40;;
31224;SDS011;17847;31.524;74.366;2024-01-30T02:19:27;228.13;;;133.25;;
31224;SDS011;17847;31.524;74.366;2024-01-30T02:21:57;224.25;;;132.35;;
31224;SDS011;17847;31.524;74.366;2024-01-30T02:24:26;218.75;;;134.23;;
31224;SDS011;17847;31.524;74.366;2024-01-30T02:26:55;220.38;;;134.20;;
31224;SDS011;17847;31.524;74.366;2024-01-30T02:29:25;222.40;;;134.07;;
31224;SDS011;17847;31.524;74.366;2024-01-30T02:31:54;228.85;;;137.52;;
31224;SDS011;17847;31.524;74.366;2024-01-30T02:34:24;209.90;;;132.48;;
31224;SDS011;17847;31.524;74.366;2024-01-30T02:36:53;222.60;;;135.63;;
31224;SDS011;17847;31.524;74.366;2024-01-30T02:39:23;236.70;;;137.57;;
31224;SDS011;17847;31.524;74.366;2024-01-30T02:42:08;240.73;;;135.45;;
31224;SDS011;17847;31.524;74.366;2024-01-30T02:44:38;218.48;;;132.32;;
31224;SDS011;17847;31.524;74.366;2024-01-30T02:47:11;242.40;;;138.60;;
31224;SDS011;17847;31.524;74.366;2024-01-30T02:49:40;230.32;;;134.75;;
31224;SDS011;17847;31.524;74.366;2024-01-30T02:52:10;241.85;;;137.02;;
31224;SDS011;17847;31.524;74.366;2024-01-30T02:54:39;245.18;;;136.25;;
31224;SDS011;17847;31.524;74.366;2024-01-30T02:57:09;237.18;;;140.07;;
31224;SDS011;17847;31.524;74.366;2024-01-30T02:59:38;255.50;;;149.07;;
31224;SDS011;17847;31.524;74.366;2024-01-30T03:02:10;261.00;;;147.63;;
31224;SDS011;17847;31.524;74.366;2024-01-30T03:04:42;264.35;;;151.70;;
31224;SDS011;17847;31.524;74.366;2024-01-30T03:07:12;271.25;;;152.45;;
31224;SDS011;17847;31.524;74.366;2024-01-30T03:09:42;271.83;;;152.38;;
31224;SDS011;17847;31.524;74.366;2024-01-30T03:12:12;279.35;;;155.07;;
31224;SDS011;17847;31.524;74.366;2024-01-30T03:14:41;274.02;;;154.45;;
31224;SDS011;17847;31.524;74.366;2024-01-30T03:17:11;264.05;;;153.75;;
31224;SDS011;17847;31.524;74.366;2024-01-30T03:19:40;267.77;;;151.70;;
31224;SDS011;17847;31.524;74.366;2024-01-30T03:22:10;255.93;;;149.07;;
31224;SDS011;17847;31.524;74.366;2024-01-30T03:24:40;253.02;;;146.65;;
31224;SDS011;17847;31.524;74.366;2024-01-30T03:27:09;255.80;;;144.90;;
31224;SDS011;17847;31.524;74.366;2024-01-30T03:29:39;241.07;;;146.63;;
31224;SDS011;17847;31.524;74.366;2024-01-30T03:32:08;236.82;;;142.77;;
31224;SDS011;17847;31.524;74.366;2024-01-30T03:34:38;224.60;;;138.55;;
31224;SDS011;17847;31.524;74.366;2024-01-30T03:37:08;214.95;;;134.40;;
31224;SDS011;17847;31.524;74.366;2024-01-30T03:39:37;226.88;;;135.65;;
31224;SDS011;17847;31.524;74.366;2024-01-30T03:42:06;206.68;;;131.20;;
31224;SDS011;17847;31.524;74.366;2024-01-30T03:44:36;211.65;;;130.10;;
31224;SDS011;17847;31.524;74.366;2024-01-30T03:47:05;201.45;;;125.10;;
31224;SDS011;17847;31.524;74.366;2024-01-30T03:49:34;186.00;;;122.38;;
31224;SDS011;17847;31.524;74.366;2024-01-30T03:52:04;183.30;;;120.28;;
31224;SDS011;17847;31.524;74.366;2024-01-30T03:54:33;189.63;;;117.90;;
31224;SDS011;17847;31.524;74.366;2024-01-30T03:57:02;171.05;;;112.97;;
31224;SDS011;17847;31.524;74.366;2024-01-30T03:59:32;161.68;;;105.50;;
31224;SDS011;17847;31.524;74.366;2024-01-30T04:02:01;137.32;;;88.45;;
31224;SDS011;17847;31.524;74.366;2024-01-30T04:04:31;125.75;;;86.20;;
31224;SDS011;17847;31.524;74.366;2024-01-30T04:07:00;133.10;;;87.45;;
31224;SDS011;17847;31.524;74.366;2024-01-30T04:09:29;137.43;;;92.00;;
31224;SDS011;17847;31.524;74.366;2024-01-30T04:11:59;140.18;;;95.45;;
31224;SDS011;17847;31.524;74.366;2024-01-30T04:14:31;155.20;;;97.32;;
31224;SDS011;17847;31.524;74.366;2024-01-30T04:17:00;146.55;;;95.70;;
31224;SDS011;17847;31.524;74.366;2024-01-30T04:19:29;153.95;;;101.10;;
31224;SDS011;17847;31.524;74.366;2024-01-30T04:21:58;156.88;;;104.75;;
31224;SDS011;17847;31.524;74.366;2024-01-30T04:24:28;154.20;;;99.45;;
31224;SDS011;17847;31.524;74.366;2024-01-30T04:26:58;152.60;;;95.35;;
31224;SDS011;17847;31.524;74.366;2024-01-30T04:29:27;122.97;;;79.90;;
31224;SDS011;17847;31.524;74.366;2024-01-30T04:31:56;75.35;;;51.30;;
31224;SDS011;17847;31.524;74.366;2024-01-30T04:34:26;65.38;;;42.83;;
31224;SDS011;17847;31.524;74.366;2024-01-30T04:36:55;71.28;;;45.30;;
31224;SDS011;17847;31.524;74.366;2024-01-30T04:39:24;69.80;;;42.50;;
31224;SDS011;17847;31.524;74.366;2024-01-30T04:41:53;62.47;;;43.80;;
31224;SDS011;17847;31.524;74.366;2024-01-30T04:44:23;62.97;;;40.00;;
31224;SDS011;17847;31.524;74.366;2024-01-30T04:46:52;54.55;;;38.92;;
31224;SDS011;17847;31.524;74.366;2024-01-30T04:49:21;59.78;;;39.92;;
31224;SDS011;17847;31.524;74.366;2024-01-30T04:51:51;58.83;;;36.88;;
31224;SDS011;17847;31.524;74.366;2024-01-30T04:54:20;58.50;;;39.88;;
31224;SDS011;17847;31.524;74.366;2024-01-30T04:56:50;60.30;;;41.75;;
31224;SDS011;17847;31.524;74.366;2024-01-30T04:59:19;64.95;;;41.40;;
31224;SDS011;17847;31.524;74.366;2024-01-30T05:01:48;70.68;;;43.72;;
31224;SDS011;17847;31.524;74.366;2024-01-30T05:04:17;59.45;;;40.55;;
31224;SDS011;17847;31.524;74.366;2024-01-30T05:06:47;66.25;;;40.65;;
31224;SDS011;17847;31.524;74.366;2024-01-30T05:09:16;58.88;;;40.45;;
31224;SDS011;17847;31.524;74.366;2024-01-30T05:11:45;59.10;;;38.75;;
31224;SDS011;17847;31.524;74.366;2024-01-30T05:14:14;69.28;;;41.08;;
31224;SDS011;17847;31.524;74.366;2024-01-30T05:16:44;64.45;;;42.00;;
31224;SDS011;17847;31.524;74.366;2024-01-30T05:19:15;56.35;;;39.40;;
31224;SDS011;17847;31.524;74.366;2024-01-30T05:21:45;60.35;;;39.78;;
31224;SDS011;17847;31.524;74.366;2024-01-30T05:24:15;58.97;;;41.28;;
31224;SDS011;17847;31.524;74.366;2024-01-30T05:26:47;57.10;;;39.63;;
31224;SDS011;17847;31.524;74.366;2024-01-30T05:29:16;59.80;;;38.13;;
31224;SDS011;17847;31.524;74.366;2024-01-30T05:31:46;66.50;;;38.75;;
31224;SDS011;17847;31.524;74.366;2024-01-30T05:34:15;71.93;;;39.22;;
31224;SDS011;17847;31.524;74.366;2024-01-30T05:36:44;54.28;;;37.40;;
31224;SDS011;17847;31.524;74.366;2024-01-30T05:39:14;55.85;;;38.30;;
31224;SDS011;17847;31.524;74.366;2024-01-30T05:41:43;54.72;;;37.38;;
31224;SDS011;17847;31.524;74.366;2024-01-30T05:44:12;57.10;;;41.08;;
31224;SDS011;17847;31.524;74.366;2024-01-30T05:46:41;66.43;;;44.30;;
31224;SDS011;17847;31.524;74.366;2024-01-30T05:49:11;58.80;;;39.38;;
31224;SDS011;17847;31.524;74.366;2024-01-30T05:51:40;55.45;;;37.70;;
31224;SDS011;17847;31.524;74.366;2024-01-30T05:54:10;57.55;;;36.35;;
31224;SDS011;17847;31.524;74.366;2024-01-30T05:56:42;50.85;;;36.65;;
31224;SDS011;17847;31.524;74.366;2024-01-30T05:59:11;50.92;;;36.10;;
31224;SDS011;17847;31.524;74.366;2024-01-30T06:01:47;59.58;;;37.70;;
31224;SDS011;17847;31.524;74.366;2024-01-30T06:04:17;54.85;;;38.33;;
31224;SDS011;17847;31.524;74.366;2024-01-30T06:06:46;56.53;;;37.97;;
31224;SDS011;17847;31.524;74.366;2024-01-30T06:09:16;55.08;;;36.13;;
31224;SDS011;17847;31.524;74.366;2024-01-30T06:11:45;47.85;;;35.90;;
31224;SDS011;17847;31.524;74.366;2024-01-30T06:14:14;50.92;;;36.30;;
31224;SDS011;17847;31.524;74.366;2024-01-30T06:16:43;52.72;;;35.67;;
31224;SDS011;17847;31.524;74.366;2024-01-30T06:19:13;53.95;;;34.78;;
31224;SDS011;17847;31.524;74.366;2024-01-30T06:21:42;48.28;;;34.47;;
31224;SDS011;17847;31.524;74.366;2024-01-30T06:24:11;53.38;;;33.53;;
31224;SDS011;17847;31.524;74.366;2024-01-30T06:26:41;53.13;;;34.53;;
31224;SDS011;17847;31.524;74.366;2024-01-30T06:29:10;50.50;;;33.53;;
31224;SDS011;17847;31.524;74.366;2024-01-30T06:31:40;53.67;;;35.25;;
31224;SDS011;17847;31.524;74.366;2024-01-30T06:34:10;51.55;;;35.28;;
31224;SDS011;17847;31.524;74.366;2024-01-30T06:36:40;48.75;;;34.60;;
31224;SDS011;17847;31.524;74.366;2024-01-30T06:39:09;50.33;;;34.10;;
31224;SDS011;17847;31.524;74.366;2024-01-30T06:41:39;48.38;;;34.65;;
31224;SDS011;17847;31.524;74.366;2024-01-30T06:44:08;54.20;;;35.17;;
31224;SDS011;17847;31.524;74.366;2024-01-30T06:46:37;52.90;;;35.90;;
31224;SDS011;17847;31.524;74.366;2024-01-30T06:49:06;52.08;;;34.33;;
31224;SDS011;17847;31.524;74.366;2024-01-30T06:51:36;48.97;;;35.58;;
31224;SDS011;17847;31.524;74.366;2024-01-30T06:54:05;56.70;;;37.63;;
31224;SDS011;17847;31.524;74.366;2024-01-30T06:56:34;58.13;;;36.45;;
31224;SDS011;17847;31.524;74.366;2024-01-30T06:59:04;52.92;;;35.38;;
31224;SDS011;17847;31.524;74.366;2024-01-30T07:01:34;55.72;;;36.40;;
31224;SDS011;17847;31.524;74.366;2024-01-30T07:04:04;48.78;;;35.00;;
31224;SDS011;17847;31.524;74.366;2024-01-30T07:06:33;51.60;;;36.40;;
31224;SDS011;17847;31.524;74.366;2024-01-30T07:09:02;53.83;;;36.65;;
31224;SDS011;17847;31.524;74.366;2024-01-30T07:11:32;54.58;;;37.88;;
31224;SDS011;17847;31.524;74.366;2024-01-30T07:14:01;55.08;;;35.45;;
31224;SDS011;17847;31.524;74.366;2024-01-30T07:16:33;59.92;;;37.33;;
31224;SDS011;17847;31.524;74.366;2024-01-30T07:19:02;53.15;;;36.22;;
31224;SDS011;17847;31.524;74.366;2024-01-30T07:21:31;49.75;;;34.28;;
31224;SDS011;17847;31.524;74.366;2024-01-30T07:24:01;46.45;;;34.03;;
31224;SDS011;17847;31.524;74.366;2024-01-30T07:26:30;46.35;;;34.72;;
31224;SDS011;17847;31.524;74.366;2024-01-30T07:28:59;48.50;;;33.72;;
31224;SDS011;17847;31.524;74.366;2024-01-30T07:31:29;51.58;;;33.95;;
31224;SDS011;17847;31.524;74.366;2024-01-30T07:34:00;51.97;;;33.70;;
31224;SDS011;17847;31.524;74.366;2024-01-30T07:36:31;53.47;;;33.38;;
31224;SDS011;17847;31.524;74.366;2024-01-30T07:39:00;54.55;;;34.28;;
31224;SDS011;17847;31.524;74.366;2024-01-30T07:41:29;52.05;;;33.90;;
31224;SDS011;17847;31.524;74.366;2024-01-30T07:43:58;45.53;;;32.33;;
31224;SDS011;17847;31.524;74.366;2024-01-30T07:46:27;46.97;;;33.47;;
31224;SDS011;17847;31.524;74.366;2024-01-30T07:48:57;45.55;;;33.83;;
31224;SDS011;17847;31.524;74.366;2024-01-30T07:51:27;48.22;;;32.63;;
31224;SDS011;17847;31.524;74.366;2024-01-30T07:53:57;46.72;;;32.08;;
31224;SDS011;17847;31.524;74.366;2024-01-30T07:56:26;55.08;;;34.65;;
31224;SDS011;17847;31.524;74.366;2024-01-30T07:58:56;51.67;;;34.85;;
31224;SDS011;17847;31.524;74.366;2024-01-30T08:01:25;47.33;;;33.67;;
31224;SDS011;17847;31.524;74.366;2024-01-30T08:03:55;47.15;;;31.73;;
31224;SDS011;17847;31.524;74.366;2024-01-30T08:06:24;46.30;;;32.30;;
31224;SDS011;17847;31.524;74.366;2024-01-30T08:08:53;49.63;;;32.10;;
31224;SDS011;17847;31.524;74.366;2024-01-30T08:11:22;44.78;;;30.00;;
31224;SDS011;17847;31.524;74.366;2024-01-30T08:13:54;43.97;;;31.27;;
31224;SDS011;17847;31.524;74.366;2024-01-30T08:16:23;45.08;;;30.45;;
31224;SDS011;17847;31.524;74.366;2024-01-30T08:18:53;54.35;;;31.02;;
31224;SDS011;17847;31.524;74.366;2024-01-30T08:21:25;42.65;;;29.08;;
31224;SDS011;17847;31.524;74.366;2024-01-30T08:23:54;37.85;;;29.05;;
31224;SDS011;17847;31.524;74.366;2024-01-30T08:26:24;43.15;;;30.17;;
31224;SDS011;17847;31.524;74.366;2024-01-30T08:28:54;41.38;;;28.50;;
31224;SDS011;17847;31.524;74.366;2024-01-30T08:31:23;36.42;;;27.15;;
31224;SDS011;17847;31.524;74.366;2024-01-30T08:33:53;52.65;;;29.85;;
31224;SDS011;17847;31.524;74.366;2024-01-30T08:36:22;40.35;;;27.42;;
31224;SDS011;17847;31.524;74.366;2024-01-30T08:38:51;37.55;;;26.90;;
31224;SDS011;17847;31.524;74.366;2024-01-30T08:43:54;39.92;;;26.23;;
31224;SDS011;17847;31.524;74.366;2024-01-30T08:46:23;38.72;;;26.88;;
31224;SDS011;17847;31.524;74.366;2024-01-30T08:48:52;42.95;;;26.92;;
31224;SDS011;17847;31.524;74.366;2024-01-30T08:51:21;37.15;;;25.98;;
31224;SDS011;17847;31.524;74.366;2024-01-30T08:53:51;36.85;;;24.60;;
31224;SDS011;17847;31.524;74.366;2024-01-30T08:56:22;35.72;;;24.35;;
31224;SDS011;17847;31.524;74.366;2024-01-30T08:58:51;39.17;;;26.10;;
31224;SDS011;17847;31.524;74.366;2024-01-30T09:01:20;34.20;;;25.02;;
31224;SDS011;17847;31.524;74.366;2024-01-30T09:03:50;42.53;;;26.45;;
31224;SDS011;17847;31.524;74.366;2024-01-30T09:06:19;35.25;;;26.30;;
31224;SDS011;17847;31.524;74.366;2024-01-30T09:08:48;36.95;;;23.60;;
31224;SDS011;17847;31.524;74.366;2024-01-30T09:11:18;32.75;;;23.38;;
31224;SDS011;17847;31.524;74.366;2024-01-30T09:13:47;37.20;;;24.98;;
31224;SDS011;17847;31.524;74.366;2024-01-30T09:16:16;39.95;;;25.08;;
31224;SDS011;17847;31.524;74.366;2024-01-30T09:18:46;35.88;;;24.30;;
31224;SDS011;17847;31.524;74.366;2024-01-30T09:21:15;35.45;;;24.90;;
31224;SDS011;17847;31.524;74.366;2024-01-30T09:23:44;40.65;;;24.15;;
31224;SDS011;17847;31.524;74.366;2024-01-30T09:26:13;40.58;;;24.27;;
31224;SDS011;17847;31.524;74.366;2024-01-30T09:28:42;35.88;;;24.38;;
31224;SDS011;17847;31.524;74.366;2024-01-30T09:31:13;33.92;;;22.08;;
31224;SDS011;17847;31.524;74.366;2024-01-30T09:33:42;31.30;;;22.63;;
31224;SDS011;17847;31.524;74.366;2024-01-30T09:36:12;35.70;;;23.90;;
31224;SDS011;17847;31.524;74.366;2024-01-30T09:38:43;32.78;;;21.92;;
31224;SDS011;17847;31.524;74.366;2024-01-30T09:41:12;31.45;;;21.85;;
31224;SDS011;17847;31.524;74.366;2024-01-30T09:43:44;35.40;;;21.52;;
31224;SDS011;17847;31.524;74.366;2024-01-30T09:46:17;38.75;;;21.70;;
31224;SDS011;17847;31.524;74.366;2024-01-30T09:48:49;36.88;;;22.40;;
31224;SDS011;17847;31.524;74.366;2024-01-30T09:51:19;33.92;;;23.65;;
31224;SDS011;17847;31.524;74.366;2024-01-30T09:53:49;38.15;;;24.33;;
31224;SDS011;17847;31.524;74.366;2024-01-30T09:56:19;44.00;;;24.92;;
31224;SDS011;17847;31.524;74.366;2024-01-30T09:58:48;40.72;;;26.77;;
31224;SDS011;17847;31.524;74.366;2024-01-30T10:01:19;36.28;;;23.95;;
31224;SDS011;17847;31.524;74.366;2024-01-30T10:03:50;29.63;;;22.40;;
31224;SDS011;17847;31.524;74.366;2024-01-30T10:06:24;30.45;;;21.83;;
31224;SDS011;17847;31.524;74.366;2024-01-30T10:08:54;35.58;;;21.13;;
31224;SDS011;17847;31.524;74.366;2024-01-30T10:11:23;27.13;;;18.02;;
31224;SDS011;17847;31.524;74.366;2024-01-30T10:13:55;28.42;;;18.42;;
31224;SDS011;17847;31.524;74.366;2024-01-30T10:16:25;23.23;;;17.58;;
31224;SDS011;17847;31.524;74.366;2024-01-30T10:18:54;30.23;;;19.02;;
31224;SDS011;17847;31.524;74.366;2024-01-30T10:21:23;25.73;;;18.85;;
31224;SDS011;17847;31.524;74.366;2024-01-30T10:23:53;28.10;;;20.02;;
31224;SDS011;17847;31.524;74.366;2024-01-30T10:26:22;30.17;;;19.77;;
31224;SDS011;17847;31.524;74.366;2024-01-30T10:28:51;27.77;;;19.38;;
31224;SDS011;17847;31.524;74.366;2024-01-30T10:31:21;30.17;;;19.58;;
31224;SDS011;17847;31.524;74.366;2024-01-30T10:33:51;29.42;;;19.70;;
31224;SDS011;17847;31.524;74.366;2024-01-30T10:36:28;25.20;;;20.15;;
31224;SDS011;17847;31.524;74.366;2024-01-30T10:38:59;29.27;;;19.25;;
31224;SDS011;17847;31.524;74.366;2024-01-30T10:41:29;27.98;;;19.58;;
31224;SDS011;17847;31.524;74.366;2024-01-30T10:44:08;27.27;;;18.83;;
31224;SDS011;17847;31.524;74.366;2024-01-30T10:46:39;29.38;;;20.00;;
31224;SDS011;17847;31.524;74.366;2024-01-30T10:49:11;30.80;;;19.83;;
31224;SDS011;17847;31.524;74.366;2024-01-30T10:51:43;32.00;;;19.70;;
31224;SDS011;17847;31.524;74.366;2024-01-30T10:54:14;26.13;;;18.85;;
31224;SDS011;17847;31.524;74.366;2024-01-30T10:56:46;26.15;;;18.10;;
31224;SDS011;17847;31.524;74.366;2024-01-30T10:59:15;29.45;;;18.98;;
31224;SDS011;17847;31.524;74.366;2024-01-30T11:01:45;31.02;;;18.58;;
31224;SDS011;17847;31.524;74.366;2024-01-30T11:04:15;31.30;;;20.27;;
31224;SDS011;17847;31.524;74.366;2024-01-30T11:06:45;29.02;;;19.63;;
31224;SDS011;17847;31.524;74.366;2024-01-30T11:09:18;33.38;;;20.77;;
31224;SDS011;17847;31.524;74.366;2024-01-30T11:12:11;34.03;;;20.52;;
31224;SDS011;17847;31.524;74.366;2024-01-30T11:14:41;27.83;;;19.42;;
31224;SDS011;17847;31.524;74.366;2024-01-30T11:17:11;28.77;;;19.45;;
31224;SDS011;17847;31.524;74.366;2024-01-30T11:19:41;37.40;;;20.73;;
31224;SDS011;17847;31.524;74.366;2024-01-30T11:22:11;30.88;;;20.52;;
31224;SDS011;17847;31.524;74.366;2024-01-30T11:24:41;35.20;;;21.85;;
31224;SDS011;17847;31.524;74.366;2024-01-30T11:27:10;30.02;;;19.05;;
31224;SDS011;17847;31.524;74.366;2024-01-30T11:29:39;28.83;;;20.23;;
31224;SDS011;17847;31.524;74.366;2024-01-30T11:32:09;35.22;;;20.67;;
31224;SDS011;17847;31.524;74.366;2024-01-30T11:34:40;34.03;;;21.15;;
31224;SDS011;17847;31.524;74.366;2024-01-30T11:37:10;42.10;;;23.00;;
31224;SDS011;17847;31.524;74.366;2024-01-30T11:39:43;39.60;;;21.75;;
31224;SDS011;17847;31.524;74.366;2024-01-30T11:42:13;31.25;;;21.75;;
31224;SDS011;17847;31.524;74.366;2024-01-30T11:44:47;42.42;;;24.42;;
31224;SDS011;17847;31.524;74.366;2024-01-30T11:47:16;47.65;;;28.02;;
31224;SDS011;17847;31.524;74.366;2024-01-30T11:49:46;44.30;;;27.27;;
31224;SDS011;17847;31.524;74.366;2024-01-30T11:52:16;45.78;;;28.20;;
31224;SDS011;17847;31.524;74.366;2024-01-30T11:54:45;42.35;;;29.48;;
31224;SDS011;17847;31.524;74.366;2024-01-30T11:57:15;45.55;;;30.60;;
31224;SDS011;17847;31.524;74.366;2024-01-30T11:59:44;51.13;;;31.73;;
31224;SDS011;17847;31.524;74.366;2024-01-30T12:02:17;54.15;;;32.38;;
31224;SDS011;17847;31.524;74.366;2024-01-30T12:04:46;45.83;;;32.50;;
31224;SDS011;17847;31.524;74.366;2024-01-30T12:07:16;49.60;;;32.75;;
31224;SDS011;17847;31.524;74.366;2024-01-30T12:09:54;53.35;;;32.38;;
31224;SDS011;17847;31.524;74.366;2024-01-30T12:12:24;54.22;;;34.60;;
31224;SDS011;17847;31.524;74.366;2024-01-30T12:14:55;51.80;;;34.20;;
31224;SDS011;17847;31.524;74.366;2024-01-30T12:17:31;49.63;;;33.70;;
31224;SDS011;17847;31.524;74.366;2024-01-30T12:20:03;45.85;;;31.20;;
31224;SDS011;17847;31.524;74.366;2024-01-30T12:22:39;47.53;;;32.10;;
31224;SDS011;17847;31.524;74.366;2024-01-30T12:25:13;46.88;;;31.27;;
31224;SDS011;17847;31.524;74.366;2024-01-30T12:27:45;47.72;;;31.70;;
31224;SDS011;17847;31.524;74.366;2024-01-30T12:30:19;46.97;;;31.67;;
31224;SDS011;17847;31.524;74.366;2024-01-30T12:32:50;49.67;;;31.52;;
31224;SDS011;17847;31.524;74.366;2024-01-30T12:35:20;47.15;;;32.97;;
31224;SDS011;17847;31.524;74.366;2024-01-30T12:37:50;65.38;;;39.13;;
31224;SDS011;17847;31.524;74.366;2024-01-30T12:40:19;70.10;;;39.47;;
31224;SDS011;17847;31.524;74.366;2024-01-30T12:42:48;52.10;;;35.17;;
31224;SDS011;17847;31.524;74.366;2024-01-30T12:45:18;53.00;;;35.70;;
31224;SDS011;17847;31.524;74.366;2024-01-30T12:47:50;50.97;;;35.20;;
31224;SDS011;17847;31.524;74.366;2024-01-30T12:50:20;56.70;;;34.53;;
31224;SDS011;17847;31.524;74.366;2024-01-30T12:52:50;54.85;;;36.17;;
31224;SDS011;17847;31.524;74.366;2024-01-30T12:55:20;55.13;;;36.10;;
31224;SDS011;17847;31.524;74.366;2024-01-30T12:57:50;58.10;;;36.55;;
31224;SDS011;17847;31.524;74.366;2024-01-30T13:00:19;62.58;;;41.00;;
31224;SDS011;17847;31.524;74.366;2024-01-30T13:02:48;64.25;;;41.47;;
31224;SDS011;17847;31.524;74.366;2024-01-30T13:05:18;57.55;;;38.67;;
31224;SDS011;17847;31.524;74.366;2024-01-30T13:07:48;59.10;;;39.17;;
31224;SDS011;17847;31.524;74.366;2024-01-30T13:10:17;64.45;;;40.78;;
31224;SDS011;17847;31.524;74.366;2024-01-30T13:12:46;71.03;;;40.65;;
31224;SDS011;17847;31.524;74.366;2024-01-30T13:15:16;58.58;;;40.33;;
31224;SDS011;17847;31.524;74.366;2024-01-30T13:17:45;55.95;;;39.40;;
31224;SDS011;17847;31.524;74.366;2024-01-30T13:20:17;56.00;;;39.83;;
31224;SDS011;17847;31.524;74.366;2024-01-30T13:22:48;63.35;;;41.58;;
31224;SDS011;17847;31.524;74.366;2024-01-30T13:25:18;55.05;;;39.60;;
31224;SDS011;17847;31.524;74.366;2024-01-30T13:27:48;60.83;;;40.00;;
31224;SDS011;17847;31.524;74.366;2024-01-30T13:30:17;61.58;;;39.67;;
31224;SDS011;17847;31.524;74.366;2024-01-30T13:32:48;62.40;;;41.05;;
31224;SDS011;17847;31.524;74.366;2024-01-30T13:35:19;59.60;;;40.33;;
31224;SDS011;17847;31.524;74.366;2024-01-30T13:37:52;59.30;;;39.33;;
31224;SDS011;17847;31.524;74.366;2024-01-30T13:40:22;57.53;;;38.80;;
31224;SDS011;17847;31.524;74.366;2024-01-30T13:42:51;64.68;;;40.20;;
31224;SDS011;17847;31.524;74.366;2024-01-30T13:45:20;67.00;;;40.70;;
31224;SDS011;17847;31.524;74.366;2024-01-30T13:47:50;61.45;;;40.40;;
31224;SDS011;17847;31.524;74.366;2024-01-30T13:50:19;56.28;;;39.70;;
31224;SDS011;17847;31.524;74.366;2024-01-30T13:52:49;63.17;;;41.28;;
31224;SDS011;17847;31.524;74.366;2024-01-30T13:55:18;57.97;;;40.55;;
31224;SDS011;17847;31.524;74.366;2024-01-30T13:57:48;59.78;;;41.28;;
31224;SDS011;17847;31.524;74.366;2024-01-30T14:00:18;63.13;;;41.33;;
31224;SDS011;17847;31.524;74.366;2024-01-30T14:02:50;71.35;;;42.13;;
31224;SDS011;17847;31.524;74.366;2024-01-30T14:05:20;75.13;;;43.30;;
31224;SDS011;17847;31.524;74.366;2024-01-30T14:07:53;68.38;;;42.88;;
31224;SDS011;17847;31.524;74.366;2024-01-30T14:10:22;64.45;;;43.85;;
31224;SDS011;17847;31.524;74.366;2024-01-30T14:12:51;69.53;;;45.80;;
31224;SDS011;17847;31.524;74.366;2024-01-30T14:15:21;64.75;;;45.92;;
31224;SDS011;17847;31.524;74.366;2024-01-30T14:17:55;80.25;;;48.97;;
31224;SDS011;17847;31.524;74.366;2024-01-30T14:20:26;76.63;;;45.80;;